Flight Track Log - Related Links

Times and Time Zones

All times are in EDT time to prevent confusion due to time zone crossing. See the QXE2409 flight status page for this flight to view local times or setup timezone preferences in your user account.


Time Position Orientation Groundspeed Altitude Reporting Facility
EDT Latitude Longitude Course Direction KTS MPH feet Rate Location/Type
Tue 04:15:23 PM 48.5297 -123.0450 165° South 371 427 15,000  Level Seattle Center
Tue 04:16:23 PM 48.4289 -123.0039 165° South 378 435 15,000  Level Seattle Center
Tue 04:17:24 PM 48.3269 -122.9642 165° South 380 437 15,000  Level Seattle Center
Tue 04:18:12 PM 48.2297 -122.9258 165° South 380 437 15,000  Level Seattle Center
Tue 04:19:19 PM 48.1217 -122.8822 165° South 380 437 15,000 -90 Level Seattle Center
Tue 04:20:26 PM 48.0058 -122.8264 162° South 382 440 14,800 -843 Descending Seattle Center
Tue 04:21:20 PM 47.9281 -122.7533 148° Southeast 349 402 13,300 -1,587 Descending Seattle Center
Tue 04:22:27 PM 47.8414 -122.6722 148° Southeast 343 395 11,600 -1,078 Descending Seattle Center
Tue 04:23:28 PM 47.7572 -122.5931 148° Southeast 339 390 11,000 -469 Descending Seattle Center
Tue 04:24:35 PM 47.6694 -122.5164 150° Southeast 336 387 10,600 -541 Descending Seattle Center
Tue 04:25:30 PM 47.5931 -122.4597 153° Southeast 332 382 9,900 -927 Descending Seattle Center
Tue 04:26:25 PM 47.5153 -122.4597 180° South 287 330 8,900 -873 Descending Seattle Center
Tue 04:27:20 PM 47.4519 -122.4650 183° South 227 261 8,300 -982 Descending Seattle Center
Tue 04:28:15 PM 47.3967 -122.4658 181° South 201 231 7,100 -1,200 Descending Seattle Center
Tue 04:28:35 PM 47.3842 -122.4636 173° South 212 244 6,800 -741 Descending Seattle Center
Tue 04:29:36 PM 47.3264 -122.4631 180° South 210 242 6,100 -1,009 Descending Seattle Center
Tue 04:30:22 PM 47.2839 -122.4589 176° South 191 220 5,000 -1,377 Descending Seattle Center
Tue 04:30:37 PM 47.2778 -122.4492 133° Southeast 193 222 4,700 -1,418 Descending Seattle Center
Tue 04:31:17 PM 47.2758 -122.3914 93° East 182 209 3,700 -1,180 Descending Seattle Center
Tue 04:31:38 PM 47.2758 -122.3761 90° East 182 209 3,500 -689 Descending Seattle Center
Tue 04:32:18 PM 47.2892 -122.3219 70° East 176 203 3,000 -590 Descending Seattle Center
Tue 04:32:39 PM 47.3044 -122.3139 20° North 176 203 2,900 -590 Descending Seattle Center
Tue 04:33:19 PM 47.3378 -122.3117 North 180 207 2,400 -787 Descending Seattle Center
Tue 04:33:40 PM 47.3536 -122.3117 360° North 176 203 2,100 -716 Descending Seattle Center
Tue 04:34:26 PM 47.3844 -122.3122 359° North 151 174 1,600 -689 Descending Seattle Center
Tue 04:34:41 PM 47.3928 -122.3117 North 147 169 1,400 -787 Descending Seattle Center
Tue 04:35:27 PM 47.4200 -122.3122 359° North 115 132 800 -689 Descending Seattle Center
Tue 04:35:42 PM 47.4253 -122.3114 North 122 140 700 -316 Descending Seattle Center
Tue 04:36:43 PM 47.4536 -122.3117 360° North 112 129 400 -295 Descending Seattle Center

Login

Don't have an account? Register now (free) for customized features, flight alerts, and more!